Genco Loire — V7GN8 — position and weather

sailwx.info

Track history (hours):
 
Tides and Currents Weather Stations Pressure Air Temp Water Temp Dewpoint Dewpoint Depression Visibility Wind Speed Wind Dir Waves Ship Positions

Genco Loire

Last reported at 2015-Aug-31 04:32 UTC. Time now 2015-Sep-02 23:53 UTC.
Position S 34°15' W 058°04'.

Length 190 m; draft 6.5 m.

MMSI: 538002760.

Date/timePositionNaut miles runAvg speedWind from/ knotsBaromVisibWave heightAir tempDewpointWater temp
2015-Aug-31 04:32S 34°15' W 058°04'1010.4
2015-Aug-31 03:33S 34°24' W 057°59'1010.2
2015-Aug-31 02:33S 34°34' W 057°56'9 8.6
2015-Aug-31 01:33S 34°42' W 057°53'9 8.8
2015-Aug-31 00:34S 34°44' W 057°42'1111.2
2015-Aug-30 23:33S 34°47' W 057°29'1211.7
2015-Aug-30 22:32S 34°55' W 057°18'1111.4
2015-Aug-30 21:32S 35°03' W 057°09'1111.1
2015-Aug-30 20:33S 35°10' W 056°58'  
Track history (hours):
 
Tides and Currents Weather Stations Pressure Air Temp Water Temp Dewpoint Dewpoint Depression Visibility Wind Speed Wind Dir Waves Ship Positions

Genco Loire

Last reported at 2015-Aug-31 04:32 UTC. Time now 2015-Sep-02 23:53 UTC.
Position S 34°15' W 058°04'.

Length 190 m; draft 6.5 m.

MMSI: 538002760.

Date/timePositionNaut miles runAvg speedWind from/ knotsBaromVisibWave heightAir tempDewpointWater temp
2015-Aug-31 04:32S 34°15' W 058°04'1010.4
2015-Aug-31 03:33S 34°24' W 057°59'1010.2
2015-Aug-31 02:33S 34°34' W 057°56'9 8.6
2015-Aug-31 01:33S 34°42' W 057°53'9 8.8
2015-Aug-31 00:34S 34°44' W 057°42'1111.2
2015-Aug-30 23:33S 34°47' W 057°29'1211.7
2015-Aug-30 22:32S 34°55' W 057°18'1111.4
2015-Aug-30 21:32S 35°03' W 057°09'1111.1
2015-Aug-30 20:33S 35°10' W 056°58'  

Dump ship's entire track history